createdAt,value
2018-10-21T00:00:53.085Z,99.99
2018-10-21T00:01:53.061Z,99.99
2018-10-21T00:02:53.078Z,99.99
2018-10-21T00:03:53.030Z,99.99
2018-10-21T00:04:52.998Z,99.99
2018-10-21T00:05:52.983Z,99.99
2018-10-21T00:06:52.956Z,99.99
2018-10-21T00:07:52.936Z,99.99
2018-10-21T00:08:52.943Z,99.99
2018-10-21T00:09:52.951Z,99.99
2018-10-21T00:10:52.881Z,99.99
2018-10-21T00:11:52.858Z,99.99
2018-10-21T00:12:52.882Z,99.99
2018-10-21T00:13:52.819Z,99.99
2018-10-21T00:14:52.815Z,99.99
2018-10-21T00:15:52.780Z,99.99
2018-10-21T00:16:52.760Z,99.99
2018-10-21T00:17:52.739Z,99.99
2018-10-21T00:18:52.720Z,99.99
2018-10-21T00:19:52.713Z,99.99
2018-10-21T00:20:52.681Z,99.99
2018-10-21T00:21:52.659Z,99.99
2018-10-21T00:22:52.639Z,99.99
2018-10-21T00:23:52.620Z,99.99
2018-10-21T00:24:52.617Z,99.99
2018-10-21T00:25:52.596Z,99.99
2018-10-21T00:26:52.556Z,99.99
2018-10-21T00:27:52.541Z,99.99
2018-10-21T00:28:52.515Z,99.99
2018-10-21T00:29:52.507Z,99.99
2018-10-21T00:30:52.480Z,99.99
2018-10-21T00:31:52.481Z,99.99
2018-10-21T00:32:52.436Z,99.99
2018-10-21T00:33:52.421Z,99.99
2018-10-21T00:34:52.396Z,99.99
2018-10-21T00:35:52.384Z,99.99
2018-10-21T00:36:52.376Z,99.99
2018-10-21T00:37:52.339Z,99.99
2018-10-21T00:38:52.318Z,99.99
2018-10-21T00:39:52.301Z,99.99
2018-10-21T00:40:52.283Z,99.99
2018-10-21T00:41:52.275Z,99.99
2018-10-21T00:42:52.244Z,99.99
2018-10-21T00:43:52.248Z,99.99
2018-10-21T00:44:52.195Z,99.99
2018-10-21T00:45:52.177Z,99.99
2018-10-21T00:46:52.177Z,99.99
2018-10-21T00:47:52.138Z,99.99
2018-10-21T00:48:52.130Z,99.99
2018-10-21T00:49:52.097Z,99.99
2018-10-21T00:50:52.080Z,99.99
2018-10-21T00:51:52.055Z,99.99
2018-10-21T00:52:52.037Z,99.99
2018-10-21T00:53:52.015Z,99.99
2018-10-21T00:54:52.020Z,99.99
2018-10-21T00:55:51.975Z,99.99
2018-10-21T00:56:51.953Z,99.99
2018-10-21T00:57:51.935Z,99.99
2018-10-21T00:58:51.915Z,99.99
2018-10-21T00:59:51.910Z,99.99
2018-10-21T01:00:51.875Z,99.99
2018-10-21T01:01:51.872Z,99.99
2018-10-21T01:02:51.832Z,99.99
2018-10-21T01:03:51.816Z,99.99
2018-10-21T01:04:51.809Z,99.99
2018-10-21T01:05:51.789Z,99.99
2018-10-21T01:06:51.752Z,99.99
2018-10-21T01:07:51.751Z,99.99
2018-10-21T01:08:51.712Z,99.99
2018-10-21T01:09:51.692Z,99.99
2018-10-21T01:10:51.688Z,99.99
2018-10-21T01:11:51.652Z,99.99
2018-10-21T01:12:51.623Z,99.99
2018-10-21T01:13:51.633Z,99.99
2018-10-21T01:14:51.605Z,99.99
2018-10-21T01:15:51.574Z,99.99
2018-10-21T01:16:51.550Z,99.99
2018-10-21T01:17:51.579Z,99.99
2018-10-21T01:18:51.527Z,99.99
2018-10-21T01:19:51.499Z,99.99
2018-10-21T01:20:51.472Z,99.99
2018-10-21T01:21:51.454Z,99.99
2018-10-21T01:22:51.430Z,99.99
2018-10-21T01:23:51.412Z,99.99
2018-10-21T01:24:51.409Z,99.99
2018-10-21T01:25:51.368Z,99.99
2018-10-21T01:26:51.348Z,99.99
2018-10-21T01:27:51.335Z,99.99
2018-10-21T01:28:51.310Z,99.99
2018-10-21T01:29:51.312Z,99.99
2018-10-21T01:30:51.272Z,99.99
2018-10-21T01:31:51.250Z,99.99
2018-10-21T01:32:51.271Z,99.99
2018-10-21T01:33:51.208Z,99.99
2018-10-21T01:34:51.187Z,99.99
2018-10-21T01:35:51.165Z,99.99
2018-10-21T01:36:51.186Z,99.99
2018-10-21T01:37:51.138Z,99.99
2018-10-21T01:38:51.126Z,99.99
2018-10-21T01:39:51.153Z,99.99
2018-10-21T01:40:51.078Z,99.99
2018-10-21T01:41:51.048Z,99.99
2018-10-21T01:42:51.044Z,99.99
2018-10-21T01:43:51.010Z,99.99
2018-10-21T01:44:50.980Z,99.99
2018-10-21T01:45:50.967Z,99.99
2018-10-21T01:46:50.948Z,99.99
2018-10-21T01:47:50.925Z,99.99
2018-10-21T01:48:50.917Z,99.99
2018-10-21T01:49:50.886Z,99.99
2018-10-21T01:50:50.866Z,99.99
2018-10-21T01:51:50.844Z,99.99
2018-10-21T01:52:50.828Z,99.99
2018-10-21T01:53:50.817Z,99.99
2018-10-21T01:54:50.780Z,99.99
2018-10-21T01:55:50.760Z,99.99
2018-10-21T01:56:50.743Z,99.99
2018-10-21T01:57:50.720Z,99.99
2018-10-21T01:58:50.701Z,99.99
2018-10-21T01:59:50.699Z,99.99
2018-10-21T02:00:50.661Z,99.99
2018-10-21T02:01:50.661Z,99.99
2018-10-21T02:02:50.616Z,99.99
2018-10-21T02:03:50.598Z,99.99
2018-10-21T02:04:50.581Z,99.99
2018-10-21T02:05:50.562Z,99.99
2018-10-21T02:06:50.537Z,99.99
2018-10-21T02:07:50.532Z,99.99
2018-10-21T02:08:50.493Z,99.99
2018-10-21T02:09:50.487Z,99.99
2018-10-21T02:10:50.460Z,99.99
2018-10-21T02:11:50.438Z,99.99
2018-10-21T02:12:50.435Z,99.99
2018-10-21T02:13:50.400Z,99.99
2018-10-21T02:14:50.395Z,99.99
2018-10-21T02:15:50.358Z,99.99
2018-10-21T02:16:50.336Z,99.99
2018-10-21T02:17:50.318Z,99.99
2018-10-21T02:18:50.299Z,99.99
2018-10-21T02:19:50.276Z,99.99
2018-10-21T02:20:50.278Z,99.99
2018-10-21T02:21:50.235Z,99.99
2018-10-21T02:22:50.217Z,99.99
2018-10-21T02:23:50.212Z,99.99
2018-10-21T02:24:50.167Z,99.99
2018-10-21T02:25:50.152Z,99.99
2018-10-21T02:26:50.155Z,99.99
2018-10-21T02:27:50.115Z,99.99
2018-10-21T02:28:50.092Z,99.99
2018-10-21T02:29:50.096Z,99.99
2018-10-21T02:30:50.069Z,99.99
2018-10-21T02:31:50.035Z,99.99
2018-10-21T02:32:50.019Z,99.99
2018-10-21T02:33:49.992Z,99.99
2018-10-21T02:34:49.969Z,99.99
2018-10-21T02:35:49.954Z,99.99
2018-10-21T02:36:49.946Z,99.99
2018-10-21T02:37:49.909Z,99.99
2018-10-21T02:38:49.889Z,99.99
2018-10-21T02:39:49.866Z,99.99
2018-10-21T02:40:49.844Z,99.99
2018-10-21T02:41:49.844Z,99.99
2018-10-21T02:42:49.807Z,99.99
2018-10-21T02:43:49.789Z,99.99
2018-10-21T02:44:49.767Z,99.99
2018-10-21T02:45:49.753Z,99.99
2018-10-21T02:46:49.760Z,99.99
2018-10-21T02:47:49.728Z,99.99
2018-10-21T02:48:49.683Z,99.99
2018-10-21T02:49:49.660Z,99.99
2018-10-21T02:50:49.646Z,99.99
2018-10-21T02:51:49.624Z,99.99
2018-10-21T02:52:49.619Z,99.99
2018-10-21T02:53:49.583Z,99.99
2018-10-21T02:54:49.559Z,99.99
2018-10-21T02:55:49.544Z,99.99
2018-10-21T02:56:49.521Z,99.99
2018-10-21T02:57:49.517Z,99.99
2018-10-21T02:58:49.494Z,99.99
2018-10-21T02:59:49.477Z,99.99
2018-10-21T03:00:49.441Z,99.99
2018-10-21T03:01:49.417Z,99.99
2018-10-21T03:02:49.401Z,99.99
2018-10-21T03:03:49.378Z,99.99
2018-10-21T03:04:49.373Z,99.99
2018-10-21T03:05:49.343Z,99.99
2018-10-21T03:06:49.318Z,99.99
2018-10-21T03:07:49.314Z,99.99
2018-10-21T03:08:49.280Z,99.99
2018-10-21T03:09:49.258Z,99.99
2018-10-21T03:10:49.245Z,99.99
2018-10-21T03:11:49.219Z,99.99
2018-10-21T03:12:49.213Z,99.99
2018-10-21T03:13:49.172Z,99.99
2018-10-21T03:14:49.171Z,99.99
2018-10-21T03:15:49.132Z,99.99
2018-10-21T03:16:49.113Z,99.99
2018-10-21T03:17:49.089Z,99.99
2018-10-21T03:18:49.071Z,99.99
2018-10-21T03:19:49.066Z,99.99
2018-10-21T03:20:49.033Z,99.99
2018-10-21T03:21:49.009Z,99.99
2018-10-21T03:22:49.012Z,99.99
2018-10-21T03:23:48.968Z,99.99
2018-10-21T03:24:48.946Z,99.99
2018-10-21T03:25:48.942Z,99.99
2018-10-21T03:26:49.549Z,99.99
2018-10-21T03:27:48.890Z,99.99
2018-10-21T03:28:48.870Z,99.99
2018-10-21T03:29:48.846Z,99.99
2018-10-21T03:30:48.827Z,99.99
2018-10-21T03:31:48.832Z,99.99
2018-10-21T03:32:48.804Z,99.99
2018-10-21T03:33:48.840Z,99.99
2018-10-21T03:34:48.743Z,99.99
2018-10-21T03:35:48.721Z,99.99
2018-10-21T03:36:48.702Z,99.99
2018-10-21T03:37:48.695Z,99.99
2018-10-21T03:38:48.661Z,99.99
2018-10-21T03:39:48.634Z,99.99
2018-10-21T03:40:48.616Z,99.99
2018-10-21T03:41:48.604Z,99.99
2018-10-21T03:42:48.591Z,99.99
2018-10-21T03:43:48.555Z,99.99
2018-10-21T03:44:48.540Z,99.99
2018-10-21T03:45:48.514Z,99.99
2018-10-21T03:46:48.493Z,99.99
2018-10-21T03:47:48.493Z,99.99
2018-10-21T03:48:48.451Z,99.99
2018-10-21T03:49:48.436Z,99.99
2018-10-21T03:50:48.411Z,99.99
2018-10-21T03:51:48.389Z,99.99
2018-10-21T03:52:48.380Z,99.99
2018-10-21T03:53:48.368Z,99.99
2018-10-21T03:54:48.332Z,99.99
2018-10-21T03:55:48.309Z,99.99
2018-10-21T03:56:48.285Z,99.99
2018-10-21T03:57:48.266Z,99.99
2018-10-21T03:58:48.266Z,99.99
2018-10-21T03:59:48.247Z,99.99
2018-10-21T04:00:48.213Z,99.99
2018-10-21T04:01:48.185Z,99.99
2018-10-21T04:02:48.166Z,99.99
2018-10-21T04:03:48.147Z,99.99
2018-10-21T04:04:48.147Z,99.99
2018-10-21T04:05:48.104Z,99.99
2018-10-21T04:06:48.085Z,99.99
2018-10-21T04:07:48.070Z,99.99
2018-10-21T04:08:48.040Z,99.99
2018-10-21T04:09:48.021Z,99.99
2018-10-21T04:10:48.025Z,99.99
2018-10-21T04:11:47.979Z,99.99
2018-10-21T04:12:47.961Z,99.99
2018-10-21T04:13:47.939Z,99.99
2018-10-21T04:14:47.947Z,99.99
2018-10-21T04:15:47.903Z,99.99
2018-10-21T04:16:47.873Z,99.99
2018-10-21T04:17:47.858Z,99.99
2018-10-21T04:18:47.836Z,99.99
2018-10-21T04:19:47.818Z,99.99
2018-10-21T04:20:47.805Z,99.99
2018-10-21T04:21:47.778Z,99.99
2018-10-21T04:22:47.754Z,99.99
2018-10-21T04:23:47.734Z,99.99
2018-10-21T04:24:47.712Z,99.99
2018-10-21T04:25:47.710Z,99.99
2018-10-21T04:26:47.673Z,99.99
2018-10-21T04:27:47.652Z,99.99
2018-10-21T04:28:47.630Z,99.99
2018-10-21T04:29:47.611Z,99.99
2018-10-21T04:30:47.600Z,99.99
2018-10-21T04:31:47.567Z,99.99
2018-10-21T04:32:47.545Z,99.99
2018-10-21T04:33:47.529Z,99.99
2018-10-21T04:34:47.500Z,99.99
2018-10-21T04:35:47.503Z,99.99
2018-10-21T04:36:47.465Z,99.99
2018-10-21T04:37:47.445Z,99.99
2018-10-21T04:38:47.426Z,99.99
2018-10-21T04:39:47.420Z,99.99
2018-10-21T04:40:47.382Z,99.99
2018-10-21T04:41:47.360Z,99.99
2018-10-21T04:42:47.354Z,99.99
2018-10-21T04:43:47.337Z,99.99
2018-10-21T04:44:47.299Z,99.99
2018-10-21T04:45:47.280Z,99.99
2018-10-21T04:46:47.375Z,99.99
2018-10-21T04:47:47.236Z,99.99
2018-10-21T04:48:47.232Z,99.99
2018-10-21T04:49:47.194Z,99.99
2018-10-21T04:50:47.178Z,99.99
2018-10-21T04:51:47.174Z,99.99
2018-10-21T04:52:47.131Z,99.99
2018-10-21T04:53:47.134Z,99.99
2018-10-21T04:54:47.102Z,99.99
2018-10-21T04:55:47.081Z,99.99
2018-10-21T04:56:47.078Z,99.99
2018-10-21T04:57:47.035Z,99.99
2018-10-21T04:58:47.029Z,99.99
2018-10-21T04:59:46.991Z,99.99
2018-10-21T05:00:47.016Z,99.99
2018-10-21T05:01:46.946Z,99.99
2018-10-21T05:02:46.949Z,99.99
2018-10-21T05:03:46.910Z,99.99
2018-10-21T05:04:46.888Z,99.99
2018-10-21T05:05:46.869Z,99.99
2018-10-21T05:06:46.848Z,99.99
2018-10-21T05:07:46.829Z,99.99
2018-10-21T05:08:46.823Z,99.99
2018-10-21T05:09:48.516Z,99.99
2018-10-21T05:10:46.767Z,99.99
2018-10-21T05:11:46.765Z,99.99
2018-10-21T05:12:46.723Z,99.99
2018-10-21T05:13:46.728Z,99.99
2018-10-21T05:14:46.684Z,99.99
2018-10-21T05:15:46.664Z,99.99
2018-10-21T05:16:46.642Z,99.99
2018-10-21T05:17:46.623Z,99.99
2018-10-21T05:18:46.604Z,99.99
2018-10-21T05:19:46.597Z,99.99
2018-10-21T05:20:46.580Z,99.99
2018-10-21T05:21:46.540Z,99.99
2018-10-21T05:22:46.522Z,99.99
2018-10-21T05:23:46.519Z,99.99
2018-10-21T05:24:46.476Z,99.99
2018-10-21T05:25:46.500Z,99.99
2018-10-21T05:26:46.444Z,99.99
2018-10-21T05:27:46.416Z,99.99
2018-10-21T05:28:46.393Z,99.99
2018-10-21T05:29:46.391Z,99.99
2018-10-21T05:30:46.362Z,99.99
2018-10-21T05:31:46.341Z,99.99
2018-10-21T05:32:46.329Z,99.99
2018-10-21T05:33:46.295Z,99.99
2018-10-21T05:34:46.271Z,99.99
2018-10-21T05:35:46.265Z,99.99
2018-10-21T05:36:46.231Z,99.99
2018-10-21T05:37:46.260Z,99.99
2018-10-21T05:38:46.200Z,99.99
2018-10-21T05:39:46.166Z,99.99
2018-10-21T05:40:46.148Z,99.99
2018-10-21T05:41:46.145Z,99.99
2018-10-21T05:42:46.106Z,99.99
2018-10-21T05:43:46.100Z,99.99
2018-10-21T05:44:46.064Z,99.99
2018-10-21T05:45:48.026Z,99.99
2018-10-21T05:46:46.069Z,99.99
2018-10-21T05:47:46.001Z,99.99
2018-10-21T05:48:46.094Z,99.99
2018-10-21T05:49:45.966Z,99.99
2018-10-21T05:50:45.943Z,99.99
2018-10-21T05:51:45.938Z,99.99
2018-10-21T05:52:45.911Z,99.99
2018-10-21T05:53:45.878Z,99.99
2018-10-21T05:54:45.855Z,99.99
2018-10-21T05:55:45.848Z,99.99
2018-10-21T05:56:45.840Z,99.99
2018-10-21T05:57:45.837Z,99.99
2018-10-21T05:58:45.780Z,99.99
2018-10-21T05:59:45.766Z,99.99
2018-10-21T06:00:45.736Z,99.99
2018-10-21T06:01:45.733Z,99.99
2018-10-21T06:02:45.745Z,99.99
2018-10-21T06:03:45.676Z,99.99
2018-10-21T06:04:47.523Z,99.99
2018-10-21T06:05:45.634Z,99.99
2018-10-21T06:06:45.626Z,99.99
2018-10-21T06:07:45.591Z,99.99
2018-10-21T06:08:45.570Z,99.99
2018-10-21T06:09:45.554Z,99.99
2018-10-21T06:10:45.529Z,99.99
2018-10-21T06:11:45.542Z,99.99
2018-10-21T06:12:45.503Z,99.99
2018-10-21T06:13:45.480Z,99.99
2018-10-21T06:14:45.450Z,99.99
2018-10-21T06:15:45.444Z,99.99
2018-10-21T06:16:45.409Z,99.99
2018-10-21T06:17:45.418Z,99.99
2018-10-21T06:18:45.368Z,99.99
2018-10-21T06:19:45.351Z,99.99
2018-10-21T06:20:45.330Z,99.99
2018-10-21T06:21:45.309Z,99.99
2018-10-21T06:22:45.291Z,99.99
2018-10-21T06:23:45.344Z,99.99
2018-10-21T06:24:45.243Z,99.99
2018-10-21T06:25:48.525Z,99.99
2018-10-21T06:26:46.034Z,99.99
2018-10-21T06:27:45.195Z,99.99
2018-10-21T06:28:45.165Z,99.99
2018-10-21T06:29:45.166Z,99.99
2018-10-21T06:30:45.122Z,99.99
2018-10-21T06:31:45.104Z,99.99
2018-10-21T06:32:45.100Z,99.99
2018-10-21T06:33:45.127Z,99.99
2018-10-21T06:34:45.560Z,99.99
2018-10-21T06:35:45.035Z,99.99
2018-10-21T06:36:45.081Z,99.99
2018-10-21T06:37:45.099Z,99.99
2018-10-21T06:38:48.536Z,99.99
2018-10-21T06:39:44.939Z,99.99
2018-10-21T06:40:44.920Z,99.99
2018-10-21T06:41:44.895Z,99.99
2018-10-21T06:42:44.893Z,99.99
2018-10-21T06:43:44.859Z,99.99
2018-10-21T06:44:44.834Z,99.99
2018-10-21T06:45:44.843Z,99.99
2018-10-21T06:46:44.815Z,99.99
2018-10-21T06:47:44.777Z,99.99
2018-10-21T06:48:44.753Z,99.99
2018-10-21T06:49:44.781Z,99.99
2018-10-21T06:50:44.712Z,99.99
2018-10-21T06:51:44.698Z,99.99
2018-10-21T06:52:44.689Z,99.99
2018-10-21T06:53:44.647Z,99.99
2018-10-21T06:54:44.634Z,99.99
2018-10-21T06:55:44.610Z,99.99
2018-10-21T06:56:44.724Z,99.99
2018-10-21T06:57:44.670Z,99.99
2018-10-21T06:58:44.559Z,99.99
2018-10-21T06:59:44.562Z,99.99
2018-10-21T07:00:44.540Z,99.99
2018-10-21T07:01:44.491Z,99.99
2018-10-21T07:02:44.487Z,99.99
2018-10-21T07:03:44.454Z,99.99
2018-10-21T07:04:44.485Z,99.99
2018-10-21T07:05:44.423Z,99.99
2018-10-21T07:06:44.392Z,99.99
2018-10-21T07:09:26.504Z,99.99
2018-10-21T07:10:26.508Z,99.99
2018-10-21T07:11:26.454Z,99.99
2018-10-21T07:12:26.439Z,99.99
2018-10-21T07:13:26.431Z,99.99
2018-10-21T07:14:26.404Z,99.99
2018-10-21T07:15:26.431Z,99.99
2018-10-21T07:16:26.377Z,99.99
2018-10-21T07:17:26.336Z,99.99
2018-10-21T07:18:26.343Z,99.99
2018-10-21T07:19:26.304Z,99.99
2018-10-21T07:20:26.283Z,99.99
2018-10-21T07:21:26.272Z,99.99
2018-10-21T07:22:26.235Z,99.99
2018-10-21T07:23:26.214Z,99.99
2018-10-21T07:24:29.039Z,99.99
2018-10-21T07:25:26.173Z,99.99
2018-10-21T07:26:26.184Z,99.99
2018-10-21T07:27:26.142Z,99.99
2018-10-21T07:28:26.161Z,99.99
2018-10-21T07:29:26.110Z,99.99
2018-10-21T07:30:26.079Z,99.99
2018-10-21T07:31:26.068Z,99.99
2018-10-21T07:32:26.053Z,99.99
2018-10-21T07:33:26.018Z,99.99
2018-10-21T07:34:25.996Z,99.99
2018-10-21T07:35:25.983Z,99.99
2018-10-21T07:36:26.023Z,99.99
2018-10-21T07:37:25.950Z,99.99
2018-10-21T07:38:25.918Z,99.99
2018-10-21T07:39:25.891Z,99.99
2018-10-21T07:40:25.875Z,99.99
2018-10-21T07:41:25.871Z,99.99
2018-10-21T07:42:25.830Z,99.99
2018-10-21T07:43:25.825Z,99.99
2018-10-21T07:44:25.800Z,99.99
2018-10-21T07:45:25.769Z,99.99
2018-10-21T07:46:25.765Z,99.99
2018-10-21T07:47:25.753Z,99.99
2018-10-21T07:48:25.704Z,99.99
2018-10-21T07:49:25.689Z,99.99
2018-10-21T07:50:25.665Z,99.99
2018-10-21T07:51:25.651Z,99.99
2018-10-21T07:52:25.631Z,99.99
2018-10-21T07:53:25.628Z,99.99
2018-10-21T07:54:25.590Z,99.99
2018-10-21T07:55:25.641Z,99.99
2018-10-21T07:56:25.550Z,99.99
2018-10-21T07:57:26.037Z,99.99
2018-10-21T07:58:25.527Z,99.99
2018-10-21T07:59:25.490Z,99.99
2018-10-21T08:00:25.479Z,99.99
2018-10-21T08:01:25.510Z,99.99
2018-10-21T08:02:25.431Z,99.99
2018-10-21T08:03:25.440Z,99.99
2018-10-21T08:04:25.397Z,99.99
2018-10-21T08:05:25.376Z,99.99
2018-10-21T08:06:25.356Z,99.99
2018-10-21T08:07:25.342Z,99.99
2018-10-21T08:08:25.334Z,99.99
2018-10-21T08:09:25.297Z,99.99
2018-10-21T08:10:25.277Z,99.99
2018-10-21T08:11:25.260Z,99.99
2018-10-21T08:12:25.238Z,99.99
2018-10-21T08:13:25.230Z,99.99
2018-10-21T08:14:25.230Z,99.99
2018-10-21T08:15:25.179Z,99.99
2018-10-21T08:16:25.168Z,99.99
2018-10-21T08:17:25.141Z,99.99
2018-10-21T08:18:25.267Z,99.99
2018-10-21T08:19:25.106Z,99.99
2018-10-21T08:20:25.096Z,99.99
2018-10-21T08:21:25.067Z,99.99
2018-10-21T08:22:25.043Z,99.99
2018-10-21T08:23:25.026Z,99.99
2018-10-21T08:24:25.003Z,99.99
2018-10-21T08:25:25.000Z,99.99
2018-10-21T08:26:24.989Z,99.99
2018-10-21T08:27:25.028Z,99.99
2018-10-21T08:28:24.921Z,99.99
2018-10-21T08:29:24.923Z,99.99
2018-10-21T08:32:11.009Z,99.99
2018-10-21T08:33:10.996Z,99.99
2018-10-21T08:34:11.033Z,99.99
2018-10-21T08:35:10.952Z,99.99
2018-10-21T08:36:10.930Z,99.99
2018-10-21T08:37:10.916Z,99.99
2018-10-21T08:38:10.890Z,99.99
2018-10-21T08:39:10.872Z,99.99
2018-10-21T08:40:10.938Z,99.99
2018-10-21T08:41:10.851Z,99.99
2018-10-21T08:42:10.814Z,99.99
2018-10-21T08:43:10.814Z,99.99
2018-10-21T08:44:10.789Z,99.99
2018-10-21T08:45:10.793Z,99.99
2018-10-21T08:46:10.828Z,99.99
2018-10-21T08:47:10.722Z,99.99
2018-10-21T08:48:10.723Z,99.99
2018-10-21T08:49:10.735Z,99.99
2018-10-21T08:50:10.673Z,99.99
2018-10-21T08:51:11.544Z,99.99
2018-10-21T08:52:10.711Z,99.99
2018-10-21T08:53:10.616Z,99.99
2018-10-21T08:54:10.588Z,99.99
2018-10-21T08:55:10.659Z,99.99
2018-10-21T08:56:10.549Z,99.99
2018-10-21T08:57:10.528Z,99.99
2018-10-21T08:58:10.554Z,99.99
2018-10-21T08:59:10.517Z,99.99
2018-10-21T09:00:10.495Z,99.99
2018-10-21T09:01:10.509Z,99.99
2018-10-21T09:02:10.480Z,99.99
2018-10-21T09:03:10.435Z,99.99
2018-10-21T09:04:10.455Z,99.99
2018-10-21T09:05:10.392Z,99.99
2018-10-21T09:06:10.361Z,99.99
2018-10-21T09:07:10.400Z,99.99
2018-10-21T09:08:10.325Z,99.99
2018-10-21T09:09:10.323Z,99.99
2018-10-21T09:10:10.333Z,99.99
2018-10-21T09:11:10.266Z,99.99
2018-10-21T09:12:10.263Z,99.99
2018-10-21T09:13:10.289Z,99.56
2018-10-21T09:14:10.226Z,99.75
2018-10-21T09:15:10.320Z,99.95
2018-10-21T09:16:10.230Z,99.66
2018-10-21T09:17:10.156Z,98.32
2018-10-21T09:18:10.138Z,98.32
2018-10-21T09:19:10.221Z,98.32
2018-10-21T09:20:10.114Z,98.03
2018-10-21T09:21:10.080Z,98.47
2018-10-21T09:22:10.145Z,98.85
2018-10-21T09:23:10.039Z,98.47
2018-10-21T09:24:10.028Z,97.51
2018-10-21T09:25:10.071Z,96.75
2018-10-21T09:26:09.991Z,97.89
2018-10-21T09:27:09.968Z,97.13
2018-10-21T09:28:09.966Z,96.37
2018-10-21T09:29:09.935Z,95.03
2018-10-21T09:30:09.917Z,95.51
2018-10-21T09:31:09.958Z,95.79
2018-10-21T09:32:09.877Z,96.46
2018-10-21T09:33:09.874Z,95.65
2018-10-21T09:34:09.913Z,95.36
2018-10-21T09:35:09.823Z,95.75
2018-10-21T09:36:09.835Z,94.41
2018-10-21T09:37:09.797Z,93.55
2018-10-21T09:38:09.775Z,92.69
2018-10-21T09:39:09.763Z,92.21
2018-10-21T09:40:09.839Z,92.02
2018-10-21T09:41:09.743Z,90.40
2018-10-21T09:42:09.833Z,90.78
2018-10-21T09:43:09.745Z,90.50
2018-10-21T09:44:09.661Z,90.31
2018-10-21T09:45:09.643Z,90.21
2018-10-21T09:46:09.672Z,89.78
2018-10-21T09:47:09.608Z,89.01
2018-10-21T09:48:09.590Z,89.11
2018-10-21T09:49:09.638Z,88.82
2018-10-21T09:50:09.558Z,88.25
2018-10-21T09:51:09.549Z,87.48
2018-10-21T09:52:09.582Z,87.29
2018-10-21T09:53:09.501Z,86.67
2018-10-21T09:54:09.487Z,86.00
2018-10-21T09:55:09.556Z,85.90
2018-10-21T09:56:09.459Z,85.24
2018-10-21T09:57:09.436Z,84.95
2018-10-21T09:58:09.457Z,84.23
2018-10-21T09:59:09.400Z,83.94
2018-10-21T10:00:09.376Z,84.38
2018-10-21T10:01:09.398Z,83.99
2018-10-21T10:02:09.358Z,84.13
2018-10-21T10:03:09.327Z,85.75
2018-10-21T10:04:09.328Z,85.66
2018-10-21T10:05:09.321Z,84.80
2018-10-21T10:06:09.292Z,84.42
2018-10-21T10:07:09.352Z,82.60
2018-10-21T10:08:09.259Z,81.84
2018-10-21T10:09:09.222Z,82.22
2018-10-21T10:10:09.259Z,81.21
2018-10-21T10:11:09.190Z,80.82
2018-10-21T10:12:09.191Z,80.06
2018-10-21T10:13:09.185Z,79.20
2018-10-21T10:14:09.133Z,80.16
2018-10-21T10:15:09.121Z,79.10
2018-10-21T10:16:09.116Z,79.00
2018-10-21T10:17:09.084Z,77.80
2018-10-21T10:18:09.101Z,77.23
2018-10-21T10:19:09.085Z,76.50
2018-10-21T10:20:09.033Z,75.45
2018-10-21T10:21:09.018Z,74.20
2018-10-21T10:22:09.071Z,74.49
2018-10-21T10:23:09.015Z,74.58
2018-10-21T10:24:08.970Z,74.20
2018-10-21T10:25:08.988Z,74.58
2018-10-21T10:26:08.926Z,75.64
2018-10-21T10:27:08.919Z,73.66
2018-10-21T10:28:08.943Z,74.15
2018-10-21T10:29:08.895Z,72.99
2018-10-21T10:30:08.860Z,71.78
2018-10-21T10:31:08.900Z,70.64
2018-10-21T10:32:08.828Z,70.48
2018-10-21T10:33:08.815Z,70.29
2018-10-21T10:34:08.851Z,69.17
2018-10-21T10:35:08.801Z,68.69
2018-10-21T10:36:08.818Z,66.90
2018-10-21T10:37:08.827Z,66.03
2018-10-21T10:38:08.731Z,65.20
2018-10-21T10:39:08.753Z,63.73
2018-10-21T10:40:08.749Z,62.03
2018-10-21T10:41:08.692Z,60.24
2018-10-21T10:42:08.739Z,59.47
2018-10-21T10:43:08.722Z,59.24
2018-10-21T10:44:08.658Z,59.17
2018-10-21T10:45:08.651Z,58.50
2018-10-21T10:46:08.689Z,58.60
2018-10-21T10:47:08.605Z,57.57
2018-10-21T10:48:08.586Z,57.83
2018-10-21T10:49:08.610Z,58.86
2018-10-21T10:50:08.566Z,59.79
2018-10-21T10:51:08.567Z,59.89
2018-10-21T10:52:08.592Z,60.08
2018-10-21T10:53:08.613Z,60.82
2018-10-21T10:54:08.516Z,61.94
2018-10-21T10:55:08.547Z,62.52
2018-10-21T10:56:08.524Z,62.13
2018-10-21T10:57:08.486Z,62.71
2018-10-21T10:58:08.513Z,62.32
2018-10-21T10:59:08.461Z,61.97
2018-10-21T11:00:08.653Z,61.40
2018-10-21T11:01:08.516Z,62.04
2018-10-21T11:02:08.454Z,62.13
2018-10-21T11:03:08.424Z,61.58
2018-10-21T11:04:08.461Z,60.46
2018-10-21T11:05:08.413Z,59.27
2018-10-21T11:06:08.446Z,57.35
2018-10-21T11:07:08.438Z,57.45
2018-10-21T11:08:08.373Z,57.70
2018-10-21T11:09:08.382Z,58.70
2018-10-21T11:10:08.452Z,59.86
2018-10-21T11:11:08.349Z,60.46
2018-10-21T11:12:08.359Z,59.44
2018-10-21T11:13:08.337Z,57.83
2018-10-21T11:14:08.317Z,56.99
2018-10-21T11:15:08.316Z,56.96
2018-10-21T11:16:08.339Z,57.42
2018-10-21T11:17:08.302Z,57.60
2018-10-21T11:18:08.300Z,58.57
2018-10-21T11:19:08.300Z,57.42
2018-10-21T11:20:08.267Z,57.87
2018-10-21T11:21:08.255Z,58.73
2018-10-21T11:22:08.272Z,58.95
2018-10-21T11:23:08.264Z,57.60
2018-10-21T11:24:08.231Z,57.35
2018-10-21T11:25:08.303Z,57.15
2018-10-21T11:26:08.214Z,56.32
2018-10-21T11:27:08.206Z,56.55
2018-10-21T11:28:08.226Z,56.93
2018-10-21T11:29:08.212Z,57.25
2018-10-21T11:30:08.185Z,56.67
2018-10-21T11:31:08.210Z,56.10
2018-10-21T11:32:08.170Z,55.81
2018-10-21T11:33:08.181Z,55.35
2018-10-21T11:34:08.206Z,54.80
2018-10-21T11:35:08.160Z,53.87
2018-10-21T11:36:08.153Z,53.48
2018-10-21T11:37:08.174Z,53.29
2018-10-21T11:38:08.149Z,52.52
2018-10-21T11:39:08.134Z,52.23
2018-10-21T11:40:08.255Z,53.67
2018-10-21T11:41:08.105Z,53.48
2018-10-21T11:42:08.101Z,53.39
2018-10-21T11:43:08.163Z,53.19
2018-10-21T11:44:08.079Z,53.48
2018-10-21T11:45:08.076Z,52.55
2018-10-21T11:46:08.140Z,50.90
2018-10-21T11:47:08.055Z,50.90
2018-10-21T11:48:08.069Z,51.00
2018-10-21T11:49:08.068Z,51.03
2018-10-21T11:50:08.044Z,50.45
2018-10-21T11:51:08.067Z,50.45
2018-10-21T11:52:08.059Z,50.93
2018-10-21T11:53:08.020Z,50.54
2018-10-21T11:54:08.036Z,50.16
2018-10-21T11:55:08.077Z,49.96
2018-10-21T11:56:08.005Z,50.49
2018-10-21T11:57:07.991Z,51.26
2018-10-21T11:58:08.063Z,51.56
2018-10-21T11:59:07.997Z,52.04
2018-10-21T12:00:07.974Z,50.81
2018-10-21T12:01:08.015Z,50.98
2018-10-21T12:02:07.963Z,50.66
2018-10-21T12:03:07.955Z,50.88
2018-10-21T12:04:08.008Z,50.40
2018-10-21T12:05:07.963Z,50.57
2018-10-21T12:06:07.932Z,52.34
2018-10-21T12:07:08.038Z,53.74
2018-10-21T12:08:07.927Z,55.59
2018-10-21T12:09:07.916Z,54.27
2018-10-21T12:10:07.938Z,54.10
2018-10-21T12:11:07.919Z,53.14
2018-10-21T12:12:07.898Z,53.55
2018-10-21T12:13:07.902Z,52.87
2018-10-21T12:14:07.881Z,52.30
2018-10-21T12:15:07.890Z,51.84
2018-10-21T12:16:07.909Z,51.56
2018-10-21T12:17:07.859Z,51.56
2018-10-21T12:18:07.857Z,51.05
2018-10-21T12:19:07.903Z,51.82
2018-10-21T12:20:07.840Z,52.33
2018-10-21T12:21:07.835Z,52.87
2018-10-21T12:22:07.925Z,52.40
2018-10-21T12:23:07.978Z,51.84
2018-10-21T12:24:07.811Z,52.23
2018-10-21T12:25:07.848Z,52.61
2018-10-21T12:26:07.803Z,52.01
2018-10-21T12:27:07.793Z,50.69
2018-10-21T12:28:07.826Z,50.69
2018-10-21T12:29:07.874Z,50.69
2018-10-21T12:30:07.770Z,50.88
2018-10-21T12:31:07.788Z,51.48
2018-10-21T12:32:07.759Z,52.54
2018-10-21T12:33:07.782Z,52.54
2018-10-21T12:34:07.828Z,51.89
2018-10-21T12:35:07.822Z,51.89
2018-10-21T12:36:07.734Z,51.98
2018-10-21T12:37:07.741Z,50.90
2018-10-21T12:38:07.730Z,52.27
2018-10-21T12:39:07.709Z,51.38
2018-10-21T12:40:07.727Z,51.93
2018-10-21T12:41:07.729Z,53.47
2018-10-21T12:42:07.688Z,52.99
2018-10-21T12:43:07.782Z,52.34
2018-10-21T12:44:07.671Z,51.48
2018-10-21T12:45:07.664Z,50.45
2018-10-21T12:46:07.727Z,50.06
2018-10-21T12:47:07.687Z,50.63
2018-10-21T12:48:07.654Z,50.37
2018-10-21T12:49:07.668Z,50.57
2018-10-21T12:50:07.628Z,49.22
2018-10-21T12:51:07.631Z,49.41
2018-10-21T12:52:07.635Z,49.32
2018-10-21T12:53:07.636Z,49.32
2018-10-21T12:54:07.718Z,49.73
2018-10-21T12:55:07.616Z,49.70
2018-10-21T12:56:07.596Z,49.41